Atlantic, Iowa
Current Conditions -  °F | °C
As of 11:55 AM on Thursday 30 Oct 2014 (Local Time) from KAIO Reporting Station
Few Clouds Few Clouds  
Wind Chill: 14°   Ceiling: Unl
Heat Index: 14°   Visibility: 10mi
Dew Point:   Wind: 10mph
Humidity: 55%   Direction: 340°NNW
Pressure: 30.02"   Gusts: 16mph
Location:  41.4°N, 95.01°W
Report Text: KAIO 301655Z AUTO 34009G14KT 10SM FEW100 14/05 A3002 RMK AO2
Loading
Personal Weather Stations






























Interactive Weather Map
Tropical Storm Tracking
New forecast layout! Learn more

10-Day Weather Forecast

Advertisements
Track Severe Weather on mobile